sensor_id;sensor_type;location;lat;lon;timestamp;pressure;altitude;pressure_sealevel;temperature;humidity
42385;BME280;28042;43.986;22.860;2023-01-28T00:01:54;100910.94;;;1.64;100.00
42385;BME280;28042;43.986;22.860;2023-01-28T00:04:19;100908.97;;;1.66;100.00
42385;BME280;28042;43.986;22.860;2023-01-28T00:06:44;100922.28;;;1.68;100.00
42385;BME280;28042;43.986;22.860;2023-01-28T00:09:10;100923.66;;;1.62;100.00
42385;BME280;28042;43.986;22.860;2023-01-28T00:11:35;100920.22;;;1.51;100.00
42385;BME280;28042;43.986;22.860;2023-01-28T00:14:00;100920.09;;;1.52;100.00
42385;BME280;28042;43.986;22.860;2023-01-28T00:16:28;100927.44;;;1.50;100.00
42385;BME280;28042;43.986;22.860;2023-01-28T00:18:54;100932.69;;;1.52;100.00
42385;BME280;28042;43.986;22.860;2023-01-28T00:21:19;100928.44;;;1.49;100.00
42385;BME280;28042;43.986;22.860;2023-01-28T00:23:55;100930.69;;;1.54;100.00
42385;BME280;28042;43.986;22.860;2023-01-28T00:26:21;100934.00;;;1.57;100.00
42385;BME280;28042;43.986;22.860;2023-01-28T00:28:47;100941.50;;;1.63;100.00
42385;BME280;28042;43.986;22.860;2023-01-28T00:31:21;100935.03;;;1.66;100.00
42385;BME280;28042;43.986;22.860;2023-01-28T00:33:48;100945.50;;;1.69;100.00
42385;BME280;28042;43.986;22.860;2023-01-28T00:36:14;100944.03;;;1.65;100.00
42385;BME280;28042;43.986;22.860;2023-01-28T00:38:40;100948.72;;;1.63;100.00
42385;BME280;28042;43.986;22.860;2023-01-28T00:41:13;100941.25;;;1.66;100.00
42385;BME280;28042;43.986;22.860;2023-01-28T00:43:39;100939.41;;;1.67;100.00
42385;BME280;28042;43.986;22.860;2023-01-28T00:46:05;100946.03;;;1.63;100.00
42385;BME280;28042;43.986;22.860;2023-01-28T00:48:31;100945.31;;;1.61;100.00
42385;BME280;28042;43.986;22.860;2023-01-28T00:50:57;100942.09;;;1.67;100.00
42385;BME280;28042;43.986;22.860;2023-01-28T00:53:22;100957.09;;;1.69;100.00
42385;BME280;28042;43.986;22.860;2023-01-28T00:55:47;100957.94;;;1.70;100.00
42385;BME280;28042;43.986;22.860;2023-01-28T00:58:13;100957.81;;;1.72;100.00
42385;BME280;28042;43.986;22.860;2023-01-28T01:00:38;100955.97;;;1.72;100.00
42385;BME280;28042;43.986;22.860;2023-01-28T01:03:03;100959.84;;;1.79;100.00
42385;BME280;28042;43.986;22.860;2023-01-28T01:05:29;100961.38;;;1.82;100.00
42385;BME280;28042;43.986;22.860;2023-01-28T01:07:54;100958.84;;;1.80;100.00
42385;BME280;28042;43.986;22.860;2023-01-28T01:10:19;100958.97;;;1.79;100.00
42385;BME280;28042;43.986;22.860;2023-01-28T01:12:48;100956.53;;;1.66;100.00
42385;BME280;28042;43.986;22.860;2023-01-28T01:15:13;100952.53;;;1.60;100.00
42385;BME280;28042;43.986;22.860;2023-01-28T01:17:40;100953.38;;;1.61;100.00
42385;BME280;28042;43.986;22.860;2023-01-28T01:20:06;100945.84;;;1.55;100.00
42385;BME280;28042;43.986;22.860;2023-01-28T01:22:35;100960.09;;;1.46;100.00
42385;BME280;28042;43.986;22.860;2023-01-28T01:25:01;100966.84;;;1.40;100.00
42385;BME280;28042;43.986;22.860;2023-01-28T01:27:28;100974.91;;;1.40;100.00
42385;BME280;28042;43.986;22.860;2023-01-28T01:29:53;100981.84;;;1.42;100.00
42385;BME280;28042;43.986;22.860;2023-01-28T01:32:18;100979.59;;;1.48;100.00
42385;BME280;28042;43.986;22.860;2023-01-28T01:34:44;100975.97;;;1.49;100.00
42385;BME280;28042;43.986;22.860;2023-01-28T01:37:09;100976.75;;;1.39;100.00
42385;BME280;28042;43.986;22.860;2023-01-28T01:39:35;100966.97;;;1.38;100.00
42385;BME280;28042;43.986;22.860;2023-01-28T01:42:00;100976.47;;;1.42;100.00
42385;BME280;28042;43.986;22.860;2023-01-28T01:47:10;100971.63;;;1.36;100.00
42385;BME280;28042;43.986;22.860;2023-01-28T01:49:35;100980.09;;;1.32;100.00
42385;BME280;28042;43.986;22.860;2023-01-28T01:52:11;100975.25;;;1.26;100.00
42385;BME280;28042;43.986;22.860;2023-01-28T01:54:38;100970.31;;;1.10;100.00
42385;BME280;28042;43.986;22.860;2023-01-28T01:57:05;100980.63;;;1.05;100.00
42385;BME280;28042;43.986;22.860;2023-01-28T01:59:31;100977.44;;;1.00;100.00
42385;BME280;28042;43.986;22.860;2023-01-28T02:01:59;100979.16;;;1.01;100.00
42385;BME280;28042;43.986;22.860;2023-01-28T02:04:25;100984.09;;;0.96;100.00
42385;BME280;28042;43.986;22.860;2023-01-28T02:06:52;100987.94;;;1.03;100.00
42385;BME280;28042;43.986;22.860;2023-01-28T02:11:46;100992.63;;;0.90;100.00
42385;BME280;28042;43.986;22.860;2023-01-28T02:14:12;100995.69;;;0.85;100.00
42385;BME280;28042;43.986;22.860;2023-01-28T02:16:37;100993.66;;;0.77;100.00
42385;BME280;28042;43.986;22.860;2023-01-28T02:19:02;100987.19;;;0.80;100.00
42385;BME280;28042;43.986;22.860;2023-01-28T02:29:22;100995.31;;;0.90;100.00
42385;BME280;28042;43.986;22.860;2023-01-28T02:31:51;100991.25;;;0.95;100.00
42385;BME280;28042;43.986;22.860;2023-01-28T02:34:30;100988.25;;;0.89;100.00
42385;BME280;28042;43.986;22.860;2023-01-28T02:37:01;100993.53;;;0.79;100.00
42385;BME280;28042;43.986;22.860;2023-01-28T02:39:34;100988.06;;;0.69;100.00
42385;BME280;28042;43.986;22.860;2023-01-28T02:42:08;100990.56;;;0.61;100.00
42385;BME280;28042;43.986;22.860;2023-01-28T02:44:35;100992.34;;;0.61;100.00
42385;BME280;28042;43.986;22.860;2023-01-28T02:47:01;100989.94;;;0.57;100.00
42385;BME280;28042;43.986;22.860;2023-01-28T02:49:47;100987.03;;;0.49;100.00
42385;BME280;28042;43.986;22.860;2023-01-28T02:52:18;100995.81;;;0.51;100.00
42385;BME280;28042;43.986;22.860;2023-01-28T02:57:37;101003.00;;;0.51;100.00
42385;BME280;28042;43.986;22.860;2023-01-28T03:00:11;101005.09;;;0.47;100.00
42385;BME280;28042;43.986;22.860;2023-01-28T03:02:48;101000.09;;;0.54;100.00
42385;BME280;28042;43.986;22.860;2023-01-28T03:07:44;101004.72;;;0.41;100.00
42385;BME280;28042;43.986;22.860;2023-01-28T03:10:11;101012.66;;;0.42;100.00
42385;BME280;28042;43.986;22.860;2023-01-28T03:12:40;101004.50;;;0.44;100.00
42385;BME280;28042;43.986;22.860;2023-01-28T03:15:31;101009.00;;;0.43;100.00
42385;BME280;28042;43.986;22.860;2023-01-28T03:18:37;101007.69;;;0.38;100.00
42385;BME280;28042;43.986;22.860;2023-01-28T03:21:30;101002.78;;;0.43;100.00
42385;BME280;28042;43.986;22.860;2023-01-28T03:27:13;101004.72;;;0.41;100.00
42385;BME280;28042;43.986;22.860;2023-01-28T03:30:00;101002.19;;;0.39;100.00
42385;BME280;28042;43.986;22.860;2023-01-28T03:32:45;101004.72;;;0.41;100.00
42385;BME280;28042;43.986;22.860;2023-01-28T03:35:30;101009.13;;;0.42;100.00
42385;BME280;28042;43.986;22.860;2023-01-28T03:38:16;101008.66;;;0.37;100.00
42385;BME280;28042;43.986;22.860;2023-01-28T03:40:48;101012.06;;;0.39;100.00
42385;BME280;28042;43.986;22.860;2023-01-28T03:43:13;101013.91;;;0.38;100.00
42385;BME280;28042;43.986;22.860;2023-01-28T03:45:39;101014.16;;;0.35;100.00
42385;BME280;28042;43.986;22.860;2023-01-28T03:48:04;101018.78;;;0.33;100.00
42385;BME280;28042;43.986;22.860;2023-01-28T03:50:30;101018.19;;;0.30;100.00
42385;BME280;28042;43.986;22.860;2023-01-28T03:52:55;101020.25;;;0.37;100.00
42385;BME280;28042;43.986;22.860;2023-01-28T03:55:36;101023.28;;;0.44;100.00
42385;BME280;28042;43.986;22.860;2023-01-28T03:58:01;101022.31;;;0.45;100.00
42385;BME280;28042;43.986;22.860;2023-01-28T04:00:26;101017.91;;;0.44;100.00
42385;BME280;28042;43.986;22.860;2023-01-28T04:02:51;101025.72;;;0.47;100.00
42385;BME280;28042;43.986;22.860;2023-01-28T04:05:17;101030.69;;;0.51;100.00
42385;BME280;28042;43.986;22.860;2023-01-28T04:07:44;101026.94;;;0.54;100.00
42385;BME280;28042;43.986;22.860;2023-01-28T04:10:09;101027.50;;;0.57;100.00
42385;BME280;28042;43.986;22.860;2023-01-28T04:12:34;101029.84;;;0.51;100.00
42385;BME280;28042;43.986;22.860;2023-01-28T04:15:02;101036.06;;;0.51;100.00
42385;BME280;28042;43.986;22.860;2023-01-28T04:17:39;101039.84;;;0.49;100.00
42385;BME280;28042;43.986;22.860;2023-01-28T04:20:04;101041.31;;;0.53;100.00
42385;BME280;28042;43.986;22.860;2023-01-28T04:22:30;101045.44;;;0.57;100.00
42385;BME280;28042;43.986;22.860;2023-01-28T04:24:55;101046.78;;;0.63;100.00
42385;BME280;28042;43.986;22.860;2023-01-28T04:27:20;101044.25;;;0.61;100.00
42385;BME280;28042;43.986;22.860;2023-01-28T04:29:45;101054.97;;;0.61;100.00
42385;BME280;28042;43.986;22.860;2023-01-28T04:32:11;101050.56;;;0.71;100.00
42385;BME280;28042;43.986;22.860;2023-01-28T04:34:36;101056.38;;;0.76;100.00
42385;BME280;28042;43.986;22.860;2023-01-28T04:37:01;101063.84;;;0.73;100.00
42385;BME280;28042;43.986;22.860;2023-01-28T04:39:27;101058.38;;;0.63;100.00
42385;BME280;28042;43.986;22.860;2023-01-28T04:41:52;101057.03;;;0.57;100.00
42385;BME280;28042;43.986;22.860;2023-01-28T04:44:17;101065.22;;;0.56;100.00
42385;BME280;28042;43.986;22.860;2023-01-28T04:46:42;101070.09;;;0.51;100.00
42385;BME280;28042;43.986;22.860;2023-01-28T04:49:08;101077.16;;;0.52;100.00
42385;BME280;28042;43.986;22.860;2023-01-28T04:51:33;101077.31;;;0.62;100.00
42385;BME280;28042;43.986;22.860;2023-01-28T04:53:58;101079.84;;;0.63;100.00
42385;BME280;28042;43.986;22.860;2023-01-28T04:56:24;101082.78;;;0.71;100.00
42385;BME280;28042;43.986;22.860;2023-01-28T04:58:49;101077.28;;;0.73;100.00
42385;BME280;28042;43.986;22.860;2023-01-28T05:01:14;101078.63;;;0.78;100.00
42385;BME280;28042;43.986;22.860;2023-01-28T05:03:40;101081.16;;;0.80;100.00
42385;BME280;28042;43.986;22.860;2023-01-28T05:06:05;101083.38;;;0.75;100.00
42385;BME280;28042;43.986;22.860;2023-01-28T05:08:30;101080.81;;;0.73;100.00
42385;BME280;28042;43.986;22.860;2023-01-28T05:10:56;101075.19;;;0.76;100.00
42385;BME280;28042;43.986;22.860;2023-01-28T05:13:21;101076.28;;;0.74;100.00
42385;BME280;28042;43.986;22.860;2023-01-28T05:15:50;101083.47;;;0.84;100.00
42385;BME280;28042;43.986;22.860;2023-01-28T05:18:15;101090.31;;;0.89;100.00
42385;BME280;28042;43.986;22.860;2023-01-28T05:20:40;101095.19;;;0.83;100.00
42385;BME280;28042;43.986;22.860;2023-01-28T05:23:06;101087.75;;;0.87;100.00
42385;BME280;28042;43.986;22.860;2023-01-28T05:25:31;101094.44;;;0.93;100.00
42385;BME280;28042;43.986;22.860;2023-01-28T05:27:56;101093.94;;;0.99;100.00
42385;BME280;28042;43.986;22.860;2023-01-28T05:30:22;101089.16;;;1.02;100.00
42385;BME280;28042;43.986;22.860;2023-01-28T05:32:47;101092.19;;;1.09;100.00
42385;BME280;28042;43.986;22.860;2023-01-28T05:35:12;101080.84;;;1.05;100.00
42385;BME280;28042;43.986;22.860;2023-01-28T05:37:38;101083.63;;;1.04;100.00
42385;BME280;28042;43.986;22.860;2023-01-28T05:40:03;101082.78;;;1.03;100.00
42385;BME280;28042;43.986;22.860;2023-01-28T05:42:29;101090.63;;;0.95;100.00
42385;BME280;28042;43.986;22.860;2023-01-28T05:44:54;101092.34;;;0.96;100.00
42385;BME280;28042;43.986;22.860;2023-01-28T05:47:19;101099.66;;;0.94;100.00
42385;BME280;28042;43.986;22.860;2023-01-28T05:49:44;101102.72;;;1.01;100.00
42385;BME280;28042;43.986;22.860;2023-01-28T05:52:10;101103.78;;;1.09;100.00
42385;BME280;28042;43.986;22.860;2023-01-28T05:54:36;101108.31;;;1.09;100.00
42385;BME280;28042;43.986;22.860;2023-01-28T05:57:01;101098.41;;;1.09;100.00
42385;BME280;28042;43.986;22.860;2023-01-28T05:59:26;101108.66;;;1.16;100.00
42385;BME280;28042;43.986;22.860;2023-01-28T06:01:52;101117.22;;;1.09;100.00
42385;BME280;28042;43.986;22.860;2023-01-28T06:04:17;101114.16;;;1.14;100.00
42385;BME280;28042;43.986;22.860;2023-01-28T06:06:44;101116.59;;;1.17;100.00
42385;BME280;28042;43.986;22.860;2023-01-28T06:09:09;101120.25;;;1.16;100.00
42385;BME280;28042;43.986;22.860;2023-01-28T06:11:35;101120.84;;;1.20;100.00
42385;BME280;28042;43.986;22.860;2023-01-28T06:14:00;101130.50;;;1.22;100.00
42385;BME280;28042;43.986;22.860;2023-01-28T06:16:25;101129.53;;;1.23;100.00
42385;BME280;28042;43.986;22.860;2023-01-28T06:18:51;101126.56;;;1.26;100.00
42385;BME280;28042;43.986;22.860;2023-01-28T06:21:16;101135.34;;;1.28;100.00
42385;BME280;28042;43.986;22.860;2023-01-28T06:23:41;101142.19;;;1.32;100.00
42385;BME280;28042;43.986;22.860;2023-01-28T06:26:06;101142.06;;;1.34;100.00
42385;BME280;28042;43.986;22.860;2023-01-28T06:28:32;101141.66;;;1.38;100.00
42385;BME280;28042;43.986;22.860;2023-01-28T06:30:57;101142.84;;;1.46;100.00
42385;BME280;28042;43.986;22.860;2023-01-28T06:33:23;101139.63;;;1.31;100.00
42385;BME280;28042;43.986;22.860;2023-01-28T06:35:48;101142.50;;;1.39;100.00
42385;BME280;28042;43.986;22.860;2023-01-28T06:38:13;101148.66;;;1.30;100.00
42385;BME280;28042;43.986;22.860;2023-01-28T06:40:39;101145.25;;;1.28;100.00
42385;BME280;28042;43.986;22.860;2023-01-28T06:43:04;101148.06;;;1.26;100.00
42385;BME280;28042;43.986;22.860;2023-01-28T06:45:30;101151.47;;;1.28;100.00
42385;BME280;28042;43.986;22.860;2023-01-28T06:47:55;101150.88;;;1.25;100.00
42385;BME280;28042;43.986;22.860;2023-01-28T06:50:21;101149.84;;;1.37;100.00
42385;BME280;28042;43.986;22.860;2023-01-28T06:52:46;101147.72;;;1.52;100.00
42385;BME280;28042;43.986;22.860;2023-01-28T06:55:11;101145.25;;;1.60;100.00
42385;BME280;28042;43.986;22.860;2023-01-28T06:57:37;101157.78;;;1.70;100.00
42385;BME280;28042;43.986;22.860;2023-01-28T07:00:04;101163.50;;;1.77;100.00
42385;BME280;28042;43.986;22.860;2023-01-28T07:02:29;101156.75;;;1.83;100.00
42385;BME280;28042;43.986;22.860;2023-01-28T07:04:54;101161.94;;;1.95;100.00
42385;BME280;28042;43.986;22.860;2023-01-28T07:07:20;101172.19;;;2.02;100.00
42385;BME280;28042;43.986;22.860;2023-01-28T07:09:45;101162.59;;;2.09;100.00
42385;BME280;28042;43.986;22.860;2023-01-28T07:12:10;101170.84;;;2.17;100.00
42385;BME280;28042;43.986;22.860;2023-01-28T07:14:36;101170.84;;;2.17;100.00
42385;BME280;28042;43.986;22.860;2023-01-28T07:17:01;101179.91;;;2.16;100.00
42385;BME280;28042;43.986;22.860;2023-01-28T07:19:26;101178.00;;;2.07;100.00
42385;BME280;28042;43.986;22.860;2023-01-28T07:21:51;101176.78;;;2.11;100.00
42385;BME280;28042;43.986;22.860;2023-01-28T07:24:17;101174.81;;;2.13;100.00
42385;BME280;28042;43.986;22.860;2023-01-28T07:26:42;101181.16;;;2.12;100.00
42385;BME280;28042;43.986;22.860;2023-01-28T07:29:07;101180.47;;;2.10;100.00
42385;BME280;28042;43.986;22.860;2023-01-28T07:31:33;101176.44;;;2.04;100.00
42385;BME280;28042;43.986;22.860;2023-01-28T07:33:58;101191.25;;;1.98;100.00
42385;BME280;28042;43.986;22.860;2023-01-28T07:36:23;101183.72;;;1.92;100.00
42385;BME280;28042;43.986;22.860;2023-01-28T07:38:49;101191.06;;;1.90;100.00
42385;BME280;28042;43.986;22.860;2023-01-28T07:41:14;101194.00;;;1.87;100.00
42385;BME280;28042;43.986;22.860;2023-01-28T07:43:39;101195.13;;;1.85;100.00
42385;BME280;28042;43.986;22.860;2023-01-28T07:46:05;101196.34;;;1.81;100.00
42385;BME280;28042;43.986;22.860;2023-01-28T07:48:30;101195.28;;;1.83;100.00
42385;BME280;28042;43.986;22.860;2023-01-28T07:50:59;101198.41;;;1.88;100.00
42385;BME280;28042;43.986;22.860;2023-01-28T07:53:25;101197.69;;;1.86;100.00
42385;BME280;28042;43.986;22.860;2023-01-28T07:55:51;101209.16;;;1.88;100.00
42385;BME280;28042;43.986;22.860;2023-01-28T07:58:16;101198.41;;;1.88;100.00
42385;BME280;28042;43.986;22.860;2023-01-28T08:00:41;101206.97;;;1.93;100.00
42385;BME280;28042;43.986;22.860;2023-01-28T08:03:13;101209.16;;;1.88;100.00
42385;BME280;28042;43.986;22.860;2023-01-28T08:05:46;101208.72;;;2.04;100.00
42385;BME280;28042;43.986;22.860;2023-01-28T08:08:12;101216.66;;;2.06;100.00
42385;BME280;28042;43.986;22.860;2023-01-28T08:10:38;101209.91;;;2.11;100.00
42385;BME280;28042;43.986;22.860;2023-01-28T08:13:04;101209.50;;;2.16;100.00
42385;BME280;28042;43.986;22.860;2023-01-28T08:15:29;101212.25;;;2.25;100.00
42385;BME280;28042;43.986;22.860;2023-01-28T08:17:58;101216.78;;;2.25;100.00
42385;BME280;28042;43.986;22.860;2023-01-28T08:20:24;101219.69;;;2.33;100.00
42385;BME280;28042;43.986;22.860;2023-01-28T08:22:50;101220.44;;;2.35;100.00
42385;BME280;28042;43.986;22.860;2023-01-28T08:25:15;101231.44;;;2.32;100.00
42385;BME280;28042;43.986;22.860;2023-01-28T08:27:40;101225.06;;;2.33;100.00
42385;BME280;28042;43.986;22.860;2023-01-28T08:30:06;101234.97;;;2.33;100.00
42385;BME280;28042;43.986;22.860;2023-01-28T08:32:33;101235.84;;;2.33;100.00
42385;BME280;28042;43.986;22.860;2023-01-28T08:34:58;101231.91;;;2.37;100.00
42385;BME280;28042;43.986;22.860;2023-01-28T08:37:24;101239.56;;;2.42;100.00
42385;BME280;28042;43.986;22.860;2023-01-28T08:39:49;101231.84;;;2.48;100.00
42385;BME280;28042;43.986;22.860;2023-01-28T08:42:15;101241.09;;;2.55;100.00
42385;BME280;28042;43.986;22.860;2023-01-28T08:44:40;101234.00;;;2.54;100.00
42385;BME280;28042;43.986;22.860;2023-01-28T08:47:05;101240.19;;;2.45;100.00
42385;BME280;28042;43.986;22.860;2023-01-28T08:49:31;101240.91;;;2.47;100.00
42385;BME280;28042;43.986;22.860;2023-01-28T08:51:56;101243.31;;;2.50;100.00
42385;BME280;28042;43.986;22.860;2023-01-28T08:54:21;101247.28;;;2.46;100.00
42385;BME280;28042;43.986;22.860;2023-01-28T08:56:47;101252.66;;;2.46;100.00
42385;BME280;28042;43.986;22.860;2023-01-28T08:59:13;101259.53;;;2.60;100.00
42385;BME280;28042;43.986;22.860;2023-01-28T09:01:38;101250.41;;;2.51;100.00
42385;BME280;28042;43.986;22.860;2023-01-28T09:04:03;101258.56;;;2.61;100.00
42385;BME280;28042;43.986;22.860;2023-01-28T09:06:29;101255.41;;;2.56;100.00
42385;BME280;28042;43.986;22.860;2023-01-28T09:08:57;101260.13;;;2.64;100.00
42385;BME280;28042;43.986;22.860;2023-01-28T09:11:23;101262.75;;;2.75;100.00
42385;BME280;28042;43.986;22.860;2023-01-28T09:13:48;101264.72;;;2.73;100.00
42385;BME280;28042;43.986;22.860;2023-01-28T09:16:14;101261.41;;;2.69;100.00
42385;BME280;28042;43.986;22.860;2023-01-28T09:18:39;101265.47;;;2.54;100.00
42385;BME280;28042;43.986;22.860;2023-01-28T09:21:05;101251.53;;;2.49;100.00
42385;BME280;28042;43.986;22.860;2023-01-28T09:23:32;101265.78;;;2.61;100.00
42385;BME280;28042;43.986;22.860;2023-01-28T09:26:00;101262.63;;;2.55;100.00
42385;BME280;28042;43.986;22.860;2023-01-28T09:28:26;101264.66;;;2.63;100.00
42385;BME280;28042;43.986;22.860;2023-01-28T09:30:51;101269.59;;;2.58;100.00
42385;BME280;28042;43.986;22.860;2023-01-28T09:33:17;101256.22;;;2.77;100.00
42385;BME280;28042;43.986;22.860;2023-01-28T09:35:42;101272.13;;;2.80;100.00
42385;BME280;28042;43.986;22.860;2023-01-28T09:38:07;101265.91;;;2.80;100.00
42385;BME280;28042;43.986;22.860;2023-01-28T09:40:36;101258.00;;;2.88;100.00
42385;BME280;28042;43.986;22.860;2023-01-28T09:45:50;101256.31;;;2.87;100.00
42385;BME280;28042;43.986;22.860;2023-01-28T09:48:20;101255.50;;;2.96;100.00
42385;BME280;28042;43.986;22.860;2023-01-28T09:50:47;101248.66;;;2.92;100.00
42385;BME280;28042;43.986;22.860;2023-01-28T09:55:47;101255.13;;;2.80;100.00
42385;BME280;28042;43.986;22.860;2023-01-28T09:58:13;101257.88;;;2.90;100.00
42385;BME280;28042;43.986;22.860;2023-01-28T10:03:22;101244.34;;;2.80;100.00
42385;BME280;28042;43.986;22.860;2023-01-28T10:10:53;101237.34;;;2.98;100.00
42385;BME280;28042;43.986;22.860;2023-01-28T10:15:58;101235.03;;;2.94;100.00
42385;BME280;28042;43.986;22.860;2023-01-28T10:18:32;101239.84;;;2.90;100.00
42385;BME280;28042;43.986;22.860;2023-01-28T10:21:01;101235.19;;;2.92;100.00
42385;BME280;28042;43.986;22.860;2023-01-28T10:25:56;101232.50;;;3.02;100.00
42385;BME280;28042;43.986;22.860;2023-01-28T10:28:25;101234.53;;;3.09;100.00
42385;BME280;28042;43.986;22.860;2023-01-28T10:30:52;101229.97;;;3.00;100.00
42385;BME280;28042;43.986;22.860;2023-01-28T10:35:42;101235.00;;;2.84;100.00
42385;BME280;28042;43.986;22.860;2023-01-28T10:38:09;101232.75;;;2.89;100.00
42385;BME280;28042;43.986;22.860;2023-01-28T10:40:39;101234.19;;;2.93;100.00
42385;BME280;28042;43.986;22.860;2023-01-28T10:43:05;101235.28;;;2.81;100.00
42385;BME280;28042;43.986;22.860;2023-01-28T10:45:41;101233.56;;;2.80;100.00
42385;BME280;28042;43.986;22.860;2023-01-28T10:48:23;101232.16;;;2.86;100.00
42385;BME280;28042;43.986;22.860;2023-01-28T10:50:52;101233.56;;;2.80;100.00
42385;BME280;28042;43.986;22.860;2023-01-28T10:53:18;101232.13;;;2.76;100.00
42385;BME280;28042;43.986;22.860;2023-01-28T10:55:48;101238.97;;;2.80;100.00
42385;BME280;28042;43.986;22.860;2023-01-28T10:58:26;101231.06;;;2.88;100.00
42385;BME280;28042;43.986;22.860;2023-01-28T11:01:04;101231.88;;;2.79;100.00
42385;BME280;28042;43.986;22.860;2023-01-28T11:03:30;101234.75;;;2.87;100.00
42385;BME280;28042;43.986;22.860;2023-01-28T11:05:57;101227.75;;;2.84;100.00
42385;BME280;28042;43.986;22.860;2023-01-28T11:08:24;101234.47;;;2.90;100.00
42385;BME280;28042;43.986;22.860;2023-01-28T11:10:50;101226.78;;;2.86;100.00
42385;BME280;28042;43.986;22.860;2023-01-28T11:13:23;101237.88;;;2.92;100.00
42385;BME280;28042;43.986;22.860;2023-01-28T11:15:52;101224.94;;;2.86;100.00
42385;BME280;28042;43.986;22.860;2023-01-28T11:18:25;101227.91;;;2.83;100.00
42385;BME280;28042;43.986;22.860;2023-01-28T11:20:53;101229.25;;;2.68;100.00
42385;BME280;28042;43.986;22.860;2023-01-28T11:23:22;101230.41;;;2.75;100.00
42385;BME280;28042;43.986;22.860;2023-01-28T11:25:48;101230.75;;;2.81;100.00
42385;BME280;28042;43.986;22.860;2023-01-28T11:28:23;101228.63;;;2.85;100.00
42385;BME280;28042;43.986;22.860;2023-01-28T11:30:49;101231.31;;;2.85;100.00
42385;BME280;28042;43.986;22.860;2023-01-28T11:33:25;101228.19;;;2.80;100.00
42385;BME280;28042;43.986;22.860;2023-01-28T11:35:52;101228.44;;;2.77;100.00
42385;BME280;28042;43.986;22.860;2023-01-28T11:38:19;101223.50;;;2.82;100.00
42385;BME280;28042;43.986;22.860;2023-01-28T11:40:51;101219.09;;;2.81;100.00
42385;BME280;28042;43.986;22.860;2023-01-28T11:43:18;101222.34;;;2.75;100.00
42385;BME280;28042;43.986;22.860;2023-01-28T11:51:02;101222.97;;;2.88;100.00
42385;BME280;28042;43.986;22.860;2023-01-28T11:58:47;101230.88;;;2.80;100.00
42385;BME280;28042;43.986;22.860;2023-01-28T12:08:47;101216.78;;;2.97;100.00
42385;BME280;28042;43.986;22.860;2023-01-28T12:19:45;101216.00;;;2.86;100.00
42385;BME280;28042;43.986;22.860;2023-01-28T12:27:41;101216.31;;;2.92;100.00
42385;BME280;28042;43.986;22.860;2023-01-28T12:35:18;101221.53;;;2.84;100.00
42385;BME280;28042;43.986;22.860;2023-01-28T12:48:01;101223.69;;;2.90;100.00
42385;BME280;28042;43.986;22.860;2023-01-28T12:50:32;101227.91;;;2.83;100.00
42385;BME280;28042;43.986;22.860;2023-01-28T12:53:22;101220.28;;;2.88;100.00
42385;BME280;28042;43.986;22.860;2023-01-28T12:55:47;101223.97;;;2.87;100.00
42385;BME280;28042;43.986;22.860;2023-01-28T12:58:15;101227.63;;;2.86;100.00
42385;BME280;28042;43.986;22.860;2023-01-28T13:00:44;101226.94;;;2.94;100.00
42385;BME280;28042;43.986;22.860;2023-01-28T13:03:13;101237.88;;;2.92;100.00
42385;BME280;28042;43.986;22.860;2023-01-28T13:08:29;101232.75;;;2.89;100.00
42385;BME280;28042;43.986;22.860;2023-01-28T13:10:55;101238.88;;;2.91;100.00
42385;BME280;28042;43.986;22.860;2023-01-28T13:15:47;101243.94;;;2.84;100.00
42385;BME280;28042;43.986;22.860;2023-01-28T13:20:56;101244.44;;;2.99;100.00
42385;BME280;28042;43.986;22.860;2023-01-28T13:23:26;101249.81;;;2.99;100.00
42385;BME280;28042;43.986;22.860;2023-01-28T13:28:34;101244.28;;;3.01;100.00
42385;BME280;28042;43.986;22.860;2023-01-28T13:31:09;101255.38;;;3.07;100.00
42385;BME280;28042;43.986;22.860;2023-01-28T13:33:39;101248.81;;;3.00;100.00
42385;BME280;28042;43.986;22.860;2023-01-28T13:36:27;101256.38;;;3.06;100.00
42385;BME280;28042;43.986;22.860;2023-01-28T13:39:00;101255.81;;;3.12;100.00
42385;BME280;28042;43.986;22.860;2023-01-28T13:44:15;101261.19;;;3.12;100.00
42385;BME280;28042;43.986;22.860;2023-01-28T13:46:41;101264.66;;;3.15;100.00
42385;BME280;28042;43.986;22.860;2023-01-28T13:49:09;101270.56;;;3.08;100.00
42385;BME280;28042;43.986;22.860;2023-01-28T13:51:37;101272.25;;;3.09;100.00
42385;BME280;28042;43.986;22.860;2023-01-28T13:54:04;101270.28;;;3.11;100.00
42385;BME280;28042;43.986;22.860;2023-01-28T13:56:36;101266.72;;;3.11;100.00
42385;BME280;28042;43.986;22.860;2023-01-28T14:09:10;101273.94;;;3.01;100.00
42385;BME280;28042;43.986;22.860;2023-01-28T14:16:34;101270.47;;;2.89;100.00
42385;BME280;28042;43.986;22.860;2023-01-28T14:19:02;101272.47;;;2.87;100.00
42385;BME280;28042;43.986;22.860;2023-01-28T14:21:30;101269.34;;;2.92;100.00
42385;BME280;28042;43.986;22.860;2023-01-28T14:23:56;101275.03;;;2.89;100.00
42385;BME280;28042;43.986;22.860;2023-01-28T14:33:57;101287.22;;;2.93;100.00
42385;BME280;28042;43.986;22.860;2023-01-28T14:36:28;101287.81;;;2.96;100.00
42385;BME280;28042;43.986;22.860;2023-01-28T14:38:54;101276.59;;;2.91;100.00
42385;BME280;28042;43.986;22.860;2023-01-28T14:41:21;101280.69;;;2.95;100.00
42385;BME280;28042;43.986;22.860;2023-01-28T14:43:47;101283.53;;;2.94;100.00
42385;BME280;28042;43.986;22.860;2023-01-28T15:01:41;101309.81;;;2.71;100.00
42385;BME280;28042;43.986;22.860;2023-01-28T15:04:20;101313.72;;;2.67;100.00